createdAt,value
2023-04-23T00:00:27.199Z,97439.98
2023-04-23T00:03:17.762Z,97441.05
2023-04-23T00:05:52.217Z,97445.61
2023-04-23T00:08:20.683Z,97445.81
2023-04-23T00:10:49.176Z,97450.02
2023-04-23T00:13:17.246Z,97450.45
2023-04-23T00:15:45.438Z,97452.58
2023-04-23T00:18:13.984Z,97457.83
2023-04-23T00:20:41.970Z,97460.47
2023-04-23T00:23:10.057Z,97455.09
2023-04-23T00:25:38.180Z,97453.70
2023-04-23T00:28:06.265Z,97448.84
2023-04-23T00:30:34.550Z,97450.24
2023-04-23T00:33:02.608Z,97453.55
2023-04-23T00:35:30.832Z,97450.58
2023-04-23T00:37:59.139Z,97449.52
2023-04-23T00:40:27.203Z,97451.45
2023-04-23T00:42:56.468Z,97451.60
2023-04-23T00:45:24.589Z,97451.59
2023-04-23T00:47:53.863Z,97451.24
2023-04-23T00:50:21.991Z,97450.35
2023-04-23T00:52:50.363Z,97450.52
2023-04-23T00:55:21.311Z,97449.64
2023-04-23T00:57:49.955Z,97449.98
2023-04-23T01:00:18.902Z,97451.19
2023-04-23T01:02:49.294Z,97450.67
2023-04-23T01:05:18.328Z,97448.40
2023-04-23T01:07:47.371Z,97444.58
2023-04-23T01:10:15.448Z,97440.40
2023-04-23T01:12:43.400Z,97441.27
2023-04-23T01:15:11.955Z,97442.64
2023-04-23T01:17:41.670Z,97441.59
2023-04-23T01:20:10.342Z,97441.59
2023-04-23T01:22:38.665Z,97442.48
2023-04-23T01:25:08.209Z,97441.45
2023-04-23T01:27:36.353Z,97438.34
2023-04-23T01:30:06.185Z,97439.74
2023-04-23T01:32:36.154Z,97445.46
2023-04-23T01:35:05.004Z,97446.34
2023-04-23T01:37:34.566Z,97445.08
2023-04-23T01:40:02.731Z,97439.11
2023-04-23T01:42:30.676Z,97439.04
2023-04-23T01:44:58.572Z,97437.60
2023-04-23T01:47:26.847Z,97438.98
2023-04-23T01:49:55.564Z,97440.37
2023-04-23T01:52:23.600Z,97440.74
2023-04-23T01:54:51.800Z,97444.21
2023-04-23T01:57:26.703Z,97446.09
2023-04-23T02:00:08.925Z,97449.23
2023-04-23T02:02:41.478Z,97451.39
2023-04-23T02:05:12.315Z,97453.85
2023-04-23T02:07:40.867Z,97455.09
2023-04-23T02:10:09.887Z,97453.52
2023-04-23T02:12:38.910Z,97448.11
2023-04-23T02:15:08.763Z,97445.65
2023-04-23T02:17:37.124Z,97447.05
2023-04-23T02:20:06.953Z,97448.77
2023-04-23T02:22:36.906Z,97441.98
2023-04-23T02:25:07.180Z,97441.13
2023-04-23T02:27:35.943Z,97442.69
2023-04-23T02:30:04.963Z,97443.20
2023-04-23T02:32:33.448Z,97438.32
2023-04-23T02:35:02.238Z,97439.67
2023-04-23T02:37:30.419Z,97441.58
2023-04-23T02:39:58.437Z,97434.98
2023-04-23T02:42:26.504Z,97438.63
2023-04-23T02:44:54.522Z,97441.27
2023-04-23T02:47:22.645Z,97439.55
2023-04-23T02:49:50.801Z,97438.53
2023-04-23T02:52:18.815Z,97435.40
2023-04-23T02:54:47.170Z,97437.15
2023-04-23T02:57:16.662Z,97436.44
2023-04-23T02:59:44.820Z,97435.70
2023-04-23T03:02:12.883Z,97437.91
2023-04-23T03:04:41.502Z,97436.11
2023-04-23T03:07:10.635Z,97429.08
2023-04-23T03:09:38.969Z,97427.62
2023-04-23T03:12:07.724Z,97431.45
2023-04-23T03:14:36.008Z,97440.19
2023-04-23T03:17:04.383Z,97437.09
2023-04-23T03:19:33.577Z,97436.78
2023-04-23T03:22:06.194Z,97439.61
2023-04-23T03:24:35.005Z,97444.14
2023-04-23T03:27:03.150Z,97447.83
2023-04-23T03:29:31.092Z,97451.30
2023-04-23T03:31:59.376Z,97448.02
2023-04-23T03:34:27.540Z,97448.90
2023-04-23T03:36:55.750Z,97451.14
2023-04-23T03:39:23.823Z,97453.71
2023-04-23T03:41:54.450Z,97450.91
2023-04-23T03:44:25.794Z,97451.58
2023-04-23T03:46:54.823Z,97449.47
2023-04-23T03:49:23.210Z,97449.60
2023-04-23T03:51:51.190Z,97456.52
2023-04-23T03:54:19.942Z,97459.05
2023-04-23T03:57:12.507Z,97457.08
2023-04-23T03:59:52.774Z,97457.00
2023-04-23T04:02:20.919Z,97461.30
2023-04-23T04:04:51.959Z,97460.39
2023-04-23T04:07:20.979Z,97459.64
2023-04-23T04:09:49.454Z,97460.79
2023-04-23T04:12:17.550Z,97467.83
2023-04-23T04:14:45.915Z,97467.71
2023-04-23T04:17:16.218Z,97467.10
2023-04-23T04:19:44.461Z,97463.00
2023-04-23T04:22:12.361Z,97463.44
2023-04-23T04:24:42.489Z,97464.27
2023-04-23T04:27:11.871Z,97469.75
2023-04-23T04:29:41.158Z,97472.77
2023-04-23T04:32:10.535Z,97474.20
2023-04-23T04:34:39.661Z,97473.04
2023-04-23T04:37:07.925Z,97472.39
2023-04-23T04:39:35.823Z,97475.39
2023-04-23T04:42:06.913Z,97479.23
2023-04-23T04:44:37.799Z,97483.79
2023-04-23T04:47:08.271Z,97486.98
2023-04-23T04:49:36.320Z,97493.69
2023-04-23T04:52:04.504Z,97498.83
2023-04-23T04:54:32.630Z,97497.27
2023-04-23T04:57:02.538Z,97499.53
2023-04-23T04:59:30.775Z,97507.41
2023-04-23T05:01:59.840Z,97508.34
2023-04-23T05:04:28.077Z,97507.16
2023-04-23T05:06:56.709Z,97507.36
2023-04-23T05:09:25.920Z,97506.52
2023-04-23T05:11:53.995Z,97508.93
2023-04-23T05:14:21.982Z,97507.21
2023-04-23T05:16:50.151Z,97509.11
2023-04-23T05:19:18.265Z,97516.42
2023-04-23T05:21:46.537Z,97523.23
2023-04-23T05:24:14.449Z,97526.21
2023-04-23T05:26:42.442Z,97526.55
2023-04-23T05:29:10.457Z,97526.58
2023-04-23T05:31:38.676Z,97532.49
2023-04-23T05:34:06.582Z,97533.83
2023-04-23T05:36:34.542Z,97532.02
2023-04-23T05:39:02.499Z,97529.70
2023-04-23T05:41:30.576Z,97532.05
2023-04-23T05:43:58.530Z,97531.23
2023-04-23T05:46:26.709Z,97528.98
2023-04-23T05:48:54.701Z,97527.46
2023-04-23T05:51:22.664Z,97525.23
2023-04-23T05:53:50.562Z,97529.29
2023-04-23T05:56:18.451Z,97527.78
2023-04-23T05:58:46.537Z,97534.48
2023-04-23T06:01:14.717Z,97532.23
2023-04-23T06:03:45.898Z,97527.52
2023-04-23T06:06:14.693Z,97524.35
2023-04-23T06:08:42.625Z,97524.34
2023-04-23T06:11:10.624Z,97522.35
2023-04-23T06:13:42.938Z,97518.08
2023-04-23T06:16:11.667Z,97519.36
2023-04-23T06:18:40.328Z,97517.52
2023-04-23T06:21:08.967Z,97517.56
2023-04-23T06:23:37.060Z,97518.07
2023-04-23T06:26:05.658Z,97519.77
2023-04-23T06:28:33.756Z,97515.69
2023-04-23T06:31:21.934Z,97515.08
2023-04-23T06:33:50.129Z,97515.60
2023-04-23T06:36:18.300Z,97519.90
2023-04-23T06:38:46.216Z,97516.80
2023-04-23T06:41:14.326Z,97513.08
2023-04-23T06:43:42.811Z,97513.69
2023-04-23T06:46:31.922Z,97514.32
2023-04-23T06:49:00.108Z,97516.27
2023-04-23T06:51:28.349Z,97514.52
2023-04-23T06:53:56.528Z,97510.79
2023-04-23T06:56:25.923Z,97514.15
2023-04-23T06:58:54.003Z,97515.73
2023-04-23T07:01:23.067Z,97514.42
2023-04-23T07:03:54.608Z,97512.96
2023-04-23T07:06:23.177Z,97515.88
2023-04-23T07:08:51.256Z,97510.73
2023-04-23T07:11:19.592Z,97506.98
2023-04-23T07:13:47.899Z,97505.81
2023-04-23T07:16:16.634Z,97505.47
2023-04-23T07:18:44.742Z,97502.86
2023-04-23T07:21:12.853Z,97502.80
2023-04-23T07:23:40.886Z,97505.89
2023-04-23T07:26:08.912Z,97509.58
2023-04-23T07:28:36.932Z,97510.23
2023-04-23T07:31:05.005Z,97511.75
2023-04-23T07:33:33.691Z,97506.43
2023-04-23T07:36:02.410Z,97506.83
2023-04-23T07:38:30.383Z,97508.52
2023-04-23T07:40:58.394Z,97506.27
2023-04-23T07:43:26.290Z,97507.41
2023-04-23T07:45:54.425Z,97508.14
2023-04-23T07:48:22.675Z,97507.95
2023-04-23T07:50:51.547Z,97510.33
2023-04-23T07:53:19.639Z,97511.12
2023-04-23T07:55:47.713Z,97511.77
2023-04-23T07:58:15.641Z,97515.73
2023-04-23T08:00:43.716Z,97514.03
2023-04-23T08:03:11.941Z,97512.84
2023-04-23T08:05:41.592Z,97513.46
2023-04-23T08:08:13.209Z,97513.80
2023-04-23T08:10:41.720Z,97515.48
2023-04-23T08:13:09.950Z,97514.11
2023-04-23T08:15:37.975Z,97516.31
2023-04-23T08:18:06.535Z,97512.96
2023-04-23T08:20:34.816Z,97513.98
2023-04-23T08:23:03.879Z,97510.85
2023-04-23T08:25:32.811Z,97507.63
2023-04-23T08:28:01.180Z,97505.49
2023-04-23T08:30:29.413Z,97503.77
2023-04-23T08:32:57.626Z,97505.75
2023-04-23T08:35:25.784Z,97503.05
2023-04-23T08:37:53.998Z,97503.32
2023-04-23T08:40:22.192Z,97500.10
2023-04-23T08:42:57.811Z,97496.72
2023-04-23T08:45:26.965Z,97494.44
2023-04-23T08:48:02.602Z,97494.34
2023-04-23T08:50:31.443Z,97496.80
2023-04-23T08:52:59.893Z,97496.13
2023-04-23T08:55:28.040Z,97493.28
2023-04-23T08:57:58.567Z,97487.46
2023-04-23T09:00:26.543Z,97490.11
2023-04-23T09:02:55.193Z,97487.86
2023-04-23T09:05:23.600Z,97484.25
2023-04-23T09:07:52.774Z,97483.21
2023-04-23T09:10:20.942Z,97480.94
2023-04-23T09:12:49.227Z,97478.27
2023-04-23T09:15:17.861Z,97472.14
2023-04-23T09:17:47.356Z,97470.45
2023-04-23T09:20:16.302Z,97468.52
2023-04-23T09:22:54.077Z,97467.56
2023-04-23T09:25:23.979Z,97465.09
2023-04-23T09:27:53.165Z,97466.83
2023-04-23T09:30:21.620Z,97465.45
2023-04-23T09:32:49.964Z,97460.95
2023-04-23T09:35:22.638Z,97460.69
2023-04-23T09:37:53.629Z,97459.98
2023-04-23T09:40:25.166Z,97456.73
2023-04-23T09:42:56.688Z,97451.73
2023-04-23T09:45:26.064Z,97449.95
2023-04-23T09:47:56.561Z,97450.23
2023-04-23T09:50:39.190Z,97448.57
2023-04-23T09:53:09.525Z,97441.60
2023-04-23T09:55:39.831Z,97439.39
2023-04-23T09:58:13.331Z,97439.39
2023-04-23T10:00:42.700Z,97440.05
2023-04-23T10:03:12.324Z,97436.75
2023-04-23T10:08:16.295Z,97429.20
2023-04-23T10:11:02.365Z,97423.02
2023-04-23T10:13:36.567Z,97422.92
2023-04-23T10:16:20.456Z,97417.52
2023-04-23T10:18:52.225Z,97417.41
2023-04-23T10:21:20.917Z,97413.40
2023-04-23T10:23:51.683Z,97407.41
2023-04-23T10:26:23.923Z,97402.95
2023-04-23T10:28:55.029Z,97401.29
2023-04-23T10:31:24.659Z,97398.63
2023-04-23T10:33:57.769Z,97397.04
2023-04-23T10:36:28.309Z,97396.11
2023-04-23T10:39:01.418Z,97392.67
2023-04-23T10:41:37.899Z,97387.54
2023-04-23T10:44:07.465Z,97382.69
2023-04-23T10:46:38.667Z,97381.30
2023-04-23T10:49:08.524Z,97377.88
2023-04-23T10:54:13.046Z,97369.77
2023-04-23T10:56:42.203Z,97360.91
2023-04-23T10:59:21.176Z,97349.35
2023-04-23T11:01:53.147Z,97343.56
2023-04-23T11:04:25.312Z,97343.06
2023-04-23T11:06:55.489Z,97339.55
2023-04-23T11:09:30.870Z,97333.05
2023-04-23T11:12:01.623Z,97334.31
2023-04-23T11:14:42.067Z,97330.77
2023-04-23T11:17:14.732Z,97332.02
2023-04-23T11:20:07.328Z,97330.73
2023-04-23T11:22:37.046Z,97331.81
2023-04-23T11:25:10.369Z,97330.46
2023-04-23T11:27:43.671Z,97326.98
2023-04-23T11:30:17.677Z,97328.68
2023-04-23T11:32:50.682Z,97330.20
2023-04-23T11:35:21.518Z,97331.89
2023-04-23T11:37:49.789Z,97333.95
2023-04-23T11:40:19.434Z,97333.96
2023-04-23T11:42:55.204Z,97334.13
2023-04-23T11:45:29.870Z,97336.69
2023-04-23T11:48:00.694Z,97336.58
2023-04-23T11:50:31.046Z,97331.91
2023-04-23T11:53:09.448Z,97329.37
2023-04-23T11:55:38.574Z,97330.11
2023-04-23T11:58:06.562Z,97330.60
2023-04-23T12:00:34.654Z,97332.58
2023-04-23T12:03:05.093Z,97331.21
2023-04-23T12:05:40.844Z,97340.17
2023-04-23T12:08:16.294Z,97334.52
2023-04-23T12:10:52.736Z,97334.30
2023-04-23T12:13:27.504Z,97333.54
2023-04-23T12:15:59.062Z,97333.95
2023-04-23T12:18:36.054Z,97331.91
2023-04-23T12:21:07.374Z,97329.59
2023-04-23T12:23:37.963Z,97328.20
2023-04-23T12:26:12.133Z,97327.83
2023-04-23T12:28:53.952Z,97326.92
2023-04-23T12:31:24.486Z,97322.71
2023-04-23T12:34:02.264Z,97318.98
2023-04-23T12:36:31.744Z,97318.50
2023-04-23T12:39:32.045Z,97314.74
2023-04-23T12:42:06.027Z,97305.41
2023-04-23T12:44:35.986Z,97303.50
2023-04-23T12:47:09.211Z,97304.34
2023-04-23T12:49:40.247Z,97301.20
2023-04-23T12:52:10.497Z,97297.70
2023-04-23T12:54:41.443Z,97290.84
2023-04-23T12:57:14.616Z,97284.27
2023-04-23T12:59:43.614Z,97283.26
2023-04-23T13:02:12.907Z,97280.23
2023-04-23T13:04:41.051Z,97275.07
2023-04-23T13:07:09.644Z,97266.16
2023-04-23T13:09:37.675Z,97265.17
2023-04-23T13:12:05.869Z,97264.45
2023-04-23T13:14:34.015Z,97262.30
2023-04-23T13:17:02.244Z,97259.25
2023-04-23T13:19:30.444Z,97254.73
2023-04-23T13:21:58.594Z,97255.58
2023-04-23T13:24:26.570Z,97252.89
2023-04-23T13:26:55.712Z,97250.92
2023-04-23T13:29:24.588Z,97249.57
2023-04-23T13:31:52.601Z,97246.48
2023-04-23T13:34:20.539Z,97239.58
2023-04-23T13:36:49.175Z,97241.50
2023-04-23T13:39:18.543Z,97241.10
2023-04-23T13:41:53.902Z,97239.36
2023-04-23T13:44:33.813Z,97232.27
2023-04-23T13:47:02.087Z,97225.70
2023-04-23T13:49:30.926Z,97236.55
2023-04-23T13:52:01.253Z,97234.02
2023-04-23T13:54:29.704Z,97230.63
2023-04-23T13:56:58.674Z,97226.67
2023-04-23T13:59:26.892Z,97228.25
2023-04-23T14:01:55.138Z,97225.60
2023-04-23T14:04:24.397Z,97223.02
2023-04-23T14:06:52.783Z,97221.16
2023-04-23T14:09:22.680Z,97219.50
2023-04-23T14:11:50.973Z,97220.23
2023-04-23T14:14:19.282Z,97217.58
2023-04-23T14:16:47.820Z,97216.38
2023-04-23T14:19:17.517Z,97214.29
2023-04-23T14:21:46.081Z,97211.64
2023-04-23T14:24:23.954Z,97213.29
2023-04-23T14:26:51.965Z,97209.35
2023-04-23T14:29:25.680Z,97211.02
2023-04-23T14:31:54.251Z,97210.11
2023-04-23T14:34:22.607Z,97212.00
2023-04-23T14:36:53.132Z,97211.64
2023-04-23T14:39:23.660Z,97209.54
2023-04-23T14:41:52.300Z,97212.33
2023-04-23T14:44:22.468Z,97210.87
2023-04-23T14:46:51.354Z,97208.80
2023-04-23T14:49:22.822Z,97210.94
2023-04-23T14:51:54.707Z,97211.80
2023-04-23T14:54:23.139Z,97207.55
2023-04-23T14:56:52.060Z,97209.06
2023-04-23T14:59:21.429Z,97209.67
2023-04-23T15:01:50.063Z,97208.39
2023-04-23T15:04:19.355Z,97208.02
2023-04-23T15:06:47.856Z,97209.29
2023-04-23T15:09:16.221Z,97210.01
2023-04-23T15:11:44.877Z,97212.29
2023-04-23T15:14:30.955Z,97207.32
2023-04-23T15:16:59.494Z,97208.66
2023-04-23T15:19:28.726Z,97208.74
2023-04-23T15:21:57.113Z,97207.92
2023-04-23T15:24:25.334Z,97211.29
2023-04-23T15:26:55.004Z,97210.45
2023-04-23T15:29:24.761Z,97207.70
2023-04-23T15:31:58.124Z,97204.68
2023-04-23T15:34:29.357Z,97205.46
2023-04-23T15:36:57.512Z,97203.98
2023-04-23T15:39:26.674Z,97202.59
2023-04-23T15:41:54.804Z,97199.76
2023-04-23T15:44:23.978Z,97196.61
2023-04-23T15:46:52.760Z,97193.72
2023-04-23T15:49:20.792Z,97193.30
2023-04-23T15:51:48.913Z,97191.85
2023-04-23T15:54:17.148Z,97192.16
2023-04-23T15:56:45.297Z,97194.60
2023-04-23T15:59:13.805Z,97192.49
2023-04-23T16:01:42.171Z,97190.61
2023-04-23T16:04:11.882Z,97190.16
2023-04-23T16:06:40.758Z,97198.75
2023-04-23T16:09:09.057Z,97198.60
2023-04-23T16:11:38.348Z,97202.32
2023-04-23T16:14:09.334Z,97202.52
2023-04-23T16:16:38.961Z,97202.80
2023-04-23T16:19:07.373Z,97199.14
2023-04-23T16:21:35.694Z,97201.88
2023-04-23T16:24:04.777Z,97203.66
2023-04-23T16:26:32.913Z,97204.50
2023-04-23T16:31:32.075Z,97203.98
2023-04-23T16:34:00.226Z,97201.39
2023-04-23T16:36:28.542Z,97198.52
2023-04-23T16:38:57.220Z,97200.09
2023-04-23T16:41:25.498Z,97205.37
2023-04-23T16:43:53.826Z,97208.29
2023-04-23T16:46:22.222Z,97205.05
2023-04-23T16:48:50.294Z,97205.48
2023-04-23T16:51:18.548Z,97205.38
2023-04-23T16:53:46.504Z,97206.69
2023-04-23T16:56:14.436Z,97204.23
2023-04-23T16:58:42.657Z,97201.35
2023-04-23T17:01:11.080Z,97199.73
2023-04-23T17:03:39.487Z,97201.29
2023-04-23T17:06:28.465Z,97198.63
2023-04-23T17:08:59.042Z,97200.98
2023-04-23T17:11:28.791Z,97200.26
2023-04-23T17:13:57.733Z,97195.45
2023-04-23T17:16:29.172Z,97197.04
2023-04-23T17:18:57.913Z,97196.66
2023-04-23T17:21:26.064Z,97197.52
2023-04-23T17:23:54.192Z,97199.73
2023-04-23T17:26:22.161Z,97200.88
2023-04-23T17:28:50.416Z,97202.52
2023-04-23T17:31:18.732Z,97202.80
2023-04-23T17:33:49.660Z,97203.15
2023-04-23T17:36:18.136Z,97206.36
2023-04-23T17:38:46.448Z,97205.50
2023-04-23T17:41:14.601Z,97207.25
2023-04-23T17:43:42.667Z,97205.51
2023-04-23T17:46:10.817Z,97206.51
2023-04-23T17:48:39.142Z,97209.29
2023-04-23T17:51:07.521Z,97212.23
2023-04-23T17:53:36.574Z,97215.23
2023-04-23T17:56:04.754Z,97216.14
2023-04-23T17:58:33.092Z,97219.48
2023-04-23T18:01:01.203Z,97221.30
2023-04-23T18:03:30.837Z,97231.57
2023-04-23T18:05:59.288Z,97243.16
2023-04-23T18:08:27.420Z,97245.12
2023-04-23T18:10:55.717Z,97249.45
2023-04-23T18:13:23.923Z,97248.19
2023-04-23T18:15:52.106Z,97252.52
2023-04-23T18:18:21.920Z,97252.19
2023-04-23T18:20:52.205Z,97253.60
2023-04-23T18:23:22.456Z,97255.87
2023-04-23T18:25:50.693Z,97251.84
2023-04-23T18:28:18.784Z,97254.13
2023-04-23T18:30:47.409Z,97251.65
2023-04-23T18:33:15.652Z,97251.29
2023-04-23T18:35:47.146Z,97252.50
2023-04-23T18:38:32.323Z,97250.69
2023-04-23T18:41:03.314Z,97253.12
2023-04-23T18:43:34.706Z,97254.34
2023-04-23T18:46:03.296Z,97254.07
2023-04-23T18:48:41.655Z,97255.55
2023-04-23T18:51:25.315Z,97251.34
2023-04-23T18:53:53.292Z,97256.13
2023-04-23T18:56:21.307Z,97257.60
2023-04-23T18:58:49.367Z,97256.21
2023-04-23T19:01:17.340Z,97251.72
2023-04-23T19:03:45.613Z,97250.75
2023-04-23T19:06:14.085Z,97249.73
2023-04-23T19:08:42.742Z,97249.55
2023-04-23T19:11:11.282Z,97253.37
2023-04-23T19:13:39.397Z,97256.55
2023-04-23T19:16:09.214Z,97260.16
2023-04-23T19:18:37.922Z,97261.66
2023-04-23T19:21:06.108Z,97259.52
2023-04-23T19:23:34.375Z,97263.48
2023-04-23T19:26:04.092Z,97263.98
2023-04-23T19:28:32.433Z,97264.13
2023-04-23T19:31:00.570Z,97264.18
2023-04-23T19:33:28.712Z,97263.26
2023-04-23T19:35:56.782Z,97266.62
2023-04-23T19:38:24.733Z,97267.27
2023-04-23T19:40:52.842Z,97268.55
2023-04-23T19:43:20.967Z,97269.62
2023-04-23T19:45:48.893Z,97268.39
2023-04-23T19:48:17.034Z,97262.88
2023-04-23T19:50:45.129Z,97264.29
2023-04-23T19:53:13.436Z,97262.77
2023-04-23T19:55:42.184Z,97264.22
2023-04-23T19:58:10.117Z,97261.48
2023-04-23T20:00:41.437Z,97255.80
2023-04-23T20:03:10.253Z,97249.98
2023-04-23T20:05:39.665Z,97243.47
2023-04-23T20:08:15.314Z,97240.83
2023-04-23T20:10:43.867Z,97236.98
2023-04-23T20:13:12.273Z,97238.08
2023-04-23T20:15:40.532Z,97244.53
2023-04-23T20:18:09.018Z,97244.71
2023-04-23T20:20:37.794Z,97242.45
2023-04-23T20:23:06.319Z,97236.40
2023-04-23T20:25:36.585Z,97235.23
2023-04-23T20:28:05.258Z,97235.80
2023-04-23T20:30:33.342Z,97234.33
2023-04-23T20:33:01.601Z,97236.06
2023-04-23T20:35:31.626Z,97238.31
2023-04-23T20:38:01.005Z,97237.30
2023-04-23T20:40:34.490Z,97235.91
2023-04-23T20:43:04.724Z,97233.39
2023-04-23T20:45:34.821Z,97231.00
2023-04-23T20:48:03.835Z,97231.96
2023-04-23T20:50:32.043Z,97231.56
2023-04-23T20:53:00.498Z,97231.01
2023-04-23T20:55:28.596Z,97233.95
2023-04-23T20:57:56.588Z,97240.67
2023-04-23T21:00:25.362Z,97237.62
2023-04-23T21:02:54.004Z,97238.29
2023-04-23T21:05:22.264Z,97238.95
2023-04-23T21:07:50.974Z,97236.64
2023-04-23T21:10:19.358Z,97232.35
2023-04-23T21:12:47.753Z,97231.89
2023-04-23T21:15:17.255Z,97233.52
2023-04-23T21:17:45.207Z,97235.64
2023-04-23T21:20:13.723Z,97228.27
2023-04-23T21:22:41.709Z,97229.09
2023-04-23T21:25:10.065Z,97230.84
2023-04-23T21:27:38.709Z,97232.11
2023-04-23T21:30:17.465Z,97230.44
2023-04-23T21:32:45.705Z,97227.40
2023-04-23T21:35:14.149Z,97227.67
2023-04-23T21:37:42.423Z,97224.58
2023-04-23T21:40:10.695Z,97225.33
2023-04-23T21:42:39.195Z,97220.16
2023-04-23T21:45:07.793Z,97221.99
2023-04-23T21:47:35.864Z,97222.61
2023-04-23T21:50:05.291Z,97222.69
2023-04-23T21:52:33.354Z,97220.12
2023-04-23T21:55:01.611Z,97215.13
2023-04-23T21:57:29.708Z,97217.13
2023-04-23T21:59:57.636Z,97214.94
2023-04-23T22:02:26.401Z,97209.30
2023-04-23T22:04:54.460Z,97204.70
2023-04-23T22:07:22.967Z,97203.22
2023-04-23T22:09:51.297Z,97205.73
2023-04-23T22:12:19.338Z,97203.11
2023-04-23T22:14:47.884Z,97201.69
2023-04-23T22:17:18.477Z,97206.71
2023-04-23T22:19:46.493Z,97208.63
2023-04-23T22:22:14.475Z,97207.77
2023-04-23T22:24:42.436Z,97202.36
2023-04-23T22:27:10.560Z,97205.02
2023-04-23T22:29:38.538Z,97206.34
2023-04-23T22:32:06.573Z,97205.61
2023-04-23T22:34:34.727Z,97201.07
2023-04-23T22:37:02.685Z,97200.53
2023-04-23T22:39:30.984Z,97198.23
2023-04-23T22:41:59.052Z,97197.46
2023-04-23T22:44:26.901Z,97198.45
2023-04-23T22:46:56.645Z,97192.27
2023-04-23T22:49:24.653Z,97193.05
2023-04-23T22:51:52.767Z,97187.14
2023-04-23T22:54:20.733Z,97186.31
2023-04-23T22:56:48.599Z,97182.86
2023-04-23T22:59:16.763Z,97179.91
2023-04-23T23:01:44.874Z,97183.36
2023-04-23T23:04:13.223Z,97179.67
2023-04-23T23:06:44.113Z,97177.89
2023-04-23T23:09:12.334Z,97173.71
2023-04-23T23:11:40.570Z,97171.93
2023-04-23T23:14:08.814Z,97167.22
2023-04-23T23:16:40.131Z,97165.14
2023-04-23T23:19:08.353Z,97164.60
2023-04-23T23:21:36.484Z,97161.76
2023-04-23T23:24:04.453Z,97161.17
2023-04-23T23:26:32.488Z,97158.33
2023-04-23T23:29:00.748Z,97152.02
2023-04-23T23:31:28.750Z,97152.27
2023-04-23T23:33:57.526Z,97154.30
2023-04-23T23:36:26.209Z,97154.44
2023-04-23T23:38:54.197Z,97151.81
2023-04-23T23:41:22.271Z,97144.83
2023-04-23T23:43:50.272Z,97145.13
2023-04-23T23:46:20.046Z,97147.67
2023-04-23T23:48:48.337Z,97142.50
2023-04-23T23:51:16.397Z,97141.91
2023-04-23T23:53:44.988Z,97142.38
2023-04-23T23:56:13.046Z,97142.27
2023-04-23T23:58:41.147Z,97139.38
